Silver Shadow — C6FN6 — position and weather

sailwx.info

Track history (hours):
 
Tides and Currents Weather Stations Pressure Air Temp Water Temp Dewpoint Dewpoint Depression Visibility Wind Speed Wind Dir Waves Ship Positions

Silver Shadow

Operator: V Ships Leisure SAM

Last reported at 2014-Jul-24 19:31 UTC. Time now 2014-Jul-24 19:59 UTC.
Position N 49°17' W 123°07'.

Length 186 m; draft 6.1 m.

Type: Passenger vessel. MMSI: 308628000.

Date/timePositionNaut miles runAvg speedWind from/ knotsBaromVisibWave heightAir tempDewpointWater temp
2014-Jul-24 19:31N 49°17' W 123°07'0 0.0
2014-Jul-24 18:31N 49°17' W 123°07'0 0.0
2014-Jul-24 17:31N 49°17' W 123°07'0 0.0
2014-Jul-24 16:31N 49°17' W 123°07'0 0.0
2014-Jul-24 15:31N 49°17' W 123°07'0 0.0
2014-Jul-24 14:31N 49°17' W 123°07'1 1.3
2014-Jul-24 13:33N 49°18' W 123°07'1312.7
2014-Jul-24 12:33N 49°19' W 123°27'1413.7
2014-Jul-24 11:34N 49°20' W 123°48'1413.7
2014-Jul-24 10:33N 49°23' W 124°08'1313.4
2014-Jul-24 09:34N 49°28' W 124°27'1413.5
2014-Jul-24 08:33N 49°38' W 124°41'1413.9
2014-Jul-24 07:33N 49°50' W 124°53'1313.3
2014-Jul-24 06:33N 49°58' W 125°10'1512.8
2014-Jul-24 05:23N 50°10' W 125°22'3611.9
2014-Jul-24 02:22N 50°28' W 126°11'1214.6
2014-Jul-24 01:32N 50°30' W 126°30'1212.3
2014-Jul-24 00:33N 50°37' W 126°45'1716.8
2014-Jul-23 23:33N 50°45' W 127°08'1716.6
2014-Jul-23 22:33N 50°52' W 127°33'1413.7
2014-Jul-23 21:33N 50°60' W 127°50'9 9.4
2014-Jul-23 20:33N 51°04' W 128°03'21616.0
2014-Jul-23 07:05N 54°08' W 131°08'  
2014-Jul-18 20:00N 59°30' W 140°06'   270 / 131005.8 5.4 0.513.0 7.2
2014-Jul-15 08:34N 58°18' W 136°13'1414.2
2014-Jul-15 07:33N 58°18' W 135°46'  
Track history (hours):
 
Tides and Currents Weather Stations Pressure Air Temp Water Temp Dewpoint Dewpoint Depression Visibility Wind Speed Wind Dir Waves Ship Positions

Silver Shadow

Operator: V Ships Leisure SAM

Last reported at 2014-Jul-24 19:31 UTC. Time now 2014-Jul-24 19:59 UTC.
Position N 49°17' W 123°07'.

Length 186 m; draft 6.1 m.

Type: Passenger vessel. MMSI: 308628000.

Date/timePositionNaut miles runAvg speedWind from/ knotsBaromVisibWave heightAir tempDewpointWater temp
2014-Jul-24 19:31N 49°17' W 123°07'0 0.0
2014-Jul-24 18:31N 49°17' W 123°07'0 0.0
2014-Jul-24 17:31N 49°17' W 123°07'0 0.0
2014-Jul-24 16:31N 49°17' W 123°07'0 0.0
2014-Jul-24 15:31N 49°17' W 123°07'0 0.0
2014-Jul-24 14:31N 49°17' W 123°07'1 1.3
2014-Jul-24 13:33N 49°18' W 123°07'1312.7
2014-Jul-24 12:33N 49°19' W 123°27'1413.7
2014-Jul-24 11:34N 49°20' W 123°48'1413.7
2014-Jul-24 10:33N 49°23' W 124°08'1313.4
2014-Jul-24 09:34N 49°28' W 124°27'1413.5
2014-Jul-24 08:33N 49°38' W 124°41'1413.9
2014-Jul-24 07:33N 49°50' W 124°53'1313.3
2014-Jul-24 06:33N 49°58' W 125°10'1512.8
2014-Jul-24 05:23N 50°10' W 125°22'3611.9
2014-Jul-24 02:22N 50°28' W 126°11'1214.6
2014-Jul-24 01:32N 50°30' W 126°30'1212.3
2014-Jul-24 00:33N 50°37' W 126°45'1716.8
2014-Jul-23 23:33N 50°45' W 127°08'1716.6
2014-Jul-23 22:33N 50°52' W 127°33'1413.7
2014-Jul-23 21:33N 50°60' W 127°50'9 9.4
2014-Jul-23 20:33N 51°04' W 128°03'21616.0
2014-Jul-23 07:05N 54°08' W 131°08'  
2014-Jul-18 20:00N 59°30' W 140°06'   270 / 131005.8 5.4 0.513.0 7.2
2014-Jul-15 08:34N 58°18' W 136°13'1414.2
2014-Jul-15 07:33N 58°18' W 135°46'  

Dump ship's entire track history